createdAt,value
2022-10-09T00:01:16.320Z,61.27
2022-10-09T00:03:43.997Z,61.94
2022-10-09T00:06:11.564Z,61.80
2022-10-09T00:08:41.426Z,61.79
2022-10-09T00:11:08.621Z,61.76
2022-10-09T00:13:35.479Z,61.29
2022-10-09T00:16:02.958Z,61.95
2022-10-09T00:18:29.187Z,62.42
2022-10-09T00:20:55.484Z,61.91
2022-10-09T00:23:21.790Z,62.65
2022-10-09T00:25:52.763Z,61.69
2022-10-09T00:28:21.104Z,61.27
2022-10-09T00:30:47.623Z,61.42
2022-10-09T00:33:14.259Z,62.03
2022-10-09T00:35:40.895Z,61.95
2022-10-09T00:38:07.328Z,62.02
2022-10-09T00:40:34.449Z,61.80
2022-10-09T00:43:00.995Z,62.06
2022-10-09T00:45:27.551Z,61.97
2022-10-09T00:48:04.980Z,61.97
2022-10-09T00:50:38.292Z,62.63
2022-10-09T00:53:04.564Z,63.52
2022-10-09T00:55:32.226Z,63.97
2022-10-09T00:57:59.649Z,63.21
2022-10-09T01:00:26.800Z,62.38
2022-10-09T01:02:54.108Z,64.10
2022-10-09T01:05:25.061Z,64.44
2022-10-09T01:07:58.321Z,63.29
2022-10-09T01:10:32.835Z,63.62
2022-10-09T01:13:02.255Z,63.20
2022-10-09T01:15:33.876Z,62.88
2022-10-09T01:18:13.685Z,63.00
2022-10-09T01:20:51.754Z,62.81
2022-10-09T01:23:36.928Z,63.16
2022-10-09T01:26:06.230Z,62.81
2022-10-09T01:28:33.373Z,63.04
2022-10-09T01:31:01.749Z,63.71
2022-10-09T01:33:29.434Z,64.03
2022-10-09T01:35:55.944Z,63.90
2022-10-09T01:38:24.123Z,63.44
2022-10-09T01:40:52.268Z,62.84
2022-10-09T01:43:18.783Z,62.64
2022-10-09T01:45:46.015Z,62.43
2022-10-09T01:48:16.428Z,62.34
2022-10-09T01:50:48.094Z,62.62
2022-10-09T01:53:18.149Z,62.56
2022-10-09T01:55:58.012Z,62.96
2022-10-09T01:58:36.110Z,63.71
2022-10-09T02:01:15.453Z,62.67
2022-10-09T02:03:43.121Z,62.25
2022-10-09T02:06:11.807Z,63.16
2022-10-09T02:08:39.222Z,62.49
2022-10-09T02:11:05.865Z,63.24
2022-10-09T02:13:33.480Z,62.72
2022-10-09T02:16:18.847Z,63.03
2022-10-09T02:18:46.418Z,63.08
2022-10-09T02:21:18.206Z,62.71
2022-10-09T02:23:46.109Z,62.50
2022-10-09T02:26:13.058Z,62.39
2022-10-09T02:28:45.134Z,62.36
2022-10-09T02:31:19.821Z,62.65
2022-10-09T02:33:46.158Z,63.07
2022-10-09T02:36:13.206Z,63.52
2022-10-09T02:38:39.451Z,62.98
2022-10-09T02:41:05.685Z,62.58
2022-10-09T02:43:31.974Z,62.82
2022-10-09T02:45:58.367Z,62.11
2022-10-09T02:48:24.742Z,63.50
2022-10-09T02:50:51.179Z,63.18
2022-10-09T02:53:17.403Z,62.56
2022-10-09T02:55:43.690Z,63.70
2022-10-09T02:58:10.022Z,63.26
2022-10-09T03:00:37.608Z,63.61
2022-10-09T03:03:03.964Z,63.81
2022-10-09T03:05:30.298Z,64.20
2022-10-09T03:07:56.498Z,64.69
2022-10-09T03:10:22.798Z,63.95
2022-10-09T03:12:49.365Z,64.37
2022-10-09T03:15:16.082Z,64.00
2022-10-09T03:17:42.333Z,64.29
2022-10-09T03:20:08.915Z,63.69
2022-10-09T03:22:35.142Z,64.26
2022-10-09T03:25:01.442Z,64.88
2022-10-09T03:27:27.686Z,64.41
2022-10-09T03:29:53.921Z,64.61
2022-10-09T03:32:20.183Z,64.04
2022-10-09T03:34:46.489Z,64.55
2022-10-09T03:37:12.752Z,64.97
2022-10-09T03:39:39.012Z,64.32
2022-10-09T03:42:05.325Z,65.10
2022-10-09T03:44:31.650Z,64.60
2022-10-09T03:46:57.983Z,64.59
2022-10-09T03:49:24.413Z,64.74
2022-10-09T03:51:50.748Z,64.31
2022-10-09T03:54:16.989Z,64.21
2022-10-09T03:56:43.272Z,64.15
2022-10-09T03:59:09.940Z,64.25
2022-10-09T04:01:36.280Z,64.57
2022-10-09T04:04:02.695Z,63.69
2022-10-09T04:06:28.985Z,63.47
2022-10-09T04:08:56.655Z,64.38
2022-10-09T04:11:23.401Z,64.96
2022-10-09T04:13:49.677Z,65.16
2022-10-09T04:16:16.503Z,65.03
2022-10-09T04:18:44.232Z,64.79
2022-10-09T04:21:10.602Z,65.58
2022-10-09T04:23:36.878Z,65.40
2022-10-09T04:26:03.167Z,65.87
2022-10-09T04:28:30.696Z,64.75
2022-10-09T04:30:57.646Z,65.73
2022-10-09T04:33:24.454Z,65.43
2022-10-09T04:35:52.052Z,66.10
2022-10-09T04:38:19.208Z,65.81
2022-10-09T04:40:54.754Z,65.13
2022-10-09T04:43:20.967Z,65.44
2022-10-09T04:45:47.287Z,65.86
2022-10-09T04:48:13.562Z,66.11
2022-10-09T04:50:39.937Z,65.81
2022-10-09T04:53:06.161Z,66.91
2022-10-09T04:55:32.429Z,66.45
2022-10-09T04:57:58.666Z,65.62
2022-10-09T05:00:24.922Z,66.34
2022-10-09T05:02:51.565Z,65.78
2022-10-09T05:05:18.002Z,65.81
2022-10-09T05:07:44.224Z,66.25
2022-10-09T05:10:10.467Z,66.09
2022-10-09T05:12:36.758Z,66.16
2022-10-09T05:15:03.113Z,66.37
2022-10-09T05:17:29.434Z,66.36
2022-10-09T05:19:55.702Z,66.50
2022-10-09T05:22:21.969Z,66.14
2022-10-09T05:24:48.209Z,66.15
2022-10-09T05:27:14.429Z,66.07
2022-10-09T05:29:40.682Z,66.41
2022-10-09T05:32:07.061Z,65.66
2022-10-09T05:34:33.821Z,65.72
2022-10-09T05:37:00.039Z,65.50
2022-10-09T05:39:26.265Z,65.07
2022-10-09T05:41:52.494Z,64.77
2022-10-09T05:44:18.769Z,65.64
2022-10-09T05:46:44.994Z,66.36
2022-10-09T05:49:12.158Z,66.15
2022-10-09T05:51:39.629Z,66.03
2022-10-09T05:54:06.196Z,65.90
2022-10-09T05:56:33.783Z,66.95
2022-10-09T05:59:01.251Z,66.46
2022-10-09T06:01:28.726Z,66.73
2022-10-09T06:03:56.843Z,67.78
2022-10-09T06:06:24.200Z,67.75
2022-10-09T06:08:50.458Z,68.21
2022-10-09T06:11:19.834Z,67.82
2022-10-09T06:13:46.502Z,67.36
2022-10-09T06:16:13.986Z,67.29
2022-10-09T06:18:43.519Z,67.59
2022-10-09T06:21:11.843Z,68.37
2022-10-09T06:23:38.119Z,68.04
2022-10-09T06:26:06.008Z,68.20
2022-10-09T06:28:32.885Z,68.83
2022-10-09T06:31:03.280Z,68.68
2022-10-09T06:33:30.861Z,67.90
2022-10-09T06:36:09.481Z,67.10
2022-10-09T06:38:36.988Z,66.58
2022-10-09T06:41:04.255Z,67.71
2022-10-09T06:43:31.382Z,66.20
2022-10-09T06:46:00.345Z,66.29
2022-10-09T06:48:28.202Z,65.86
2022-10-09T06:50:54.431Z,65.11
2022-10-09T06:53:20.662Z,64.21
2022-10-09T06:55:53.554Z,64.34
2022-10-09T06:58:20.312Z,64.04
2022-10-09T07:00:46.690Z,65.66
2022-10-09T07:03:13.461Z,66.86
2022-10-09T07:05:40.100Z,67.24
2022-10-09T07:08:06.528Z,67.18
2022-10-09T07:10:32.950Z,67.38
2022-10-09T07:12:59.154Z,66.49
2022-10-09T07:15:25.519Z,67.50
2022-10-09T07:17:51.774Z,66.08
2022-10-09T07:20:19.085Z,66.50
2022-10-09T07:22:45.298Z,66.23
2022-10-09T07:25:12.380Z,64.99
2022-10-09T07:27:38.594Z,64.82
2022-10-09T07:30:05.095Z,64.66
2022-10-09T07:32:31.399Z,64.91
2022-10-09T07:34:57.830Z,64.61
2022-10-09T07:37:24.089Z,65.77
2022-10-09T07:39:50.337Z,66.05
2022-10-09T07:42:26.681Z,66.30
2022-10-09T07:44:52.918Z,66.28
2022-10-09T07:47:19.153Z,66.67
2022-10-09T07:49:45.481Z,66.41
2022-10-09T07:52:13.078Z,66.20
2022-10-09T07:54:39.698Z,66.43
2022-10-09T07:57:07.075Z,66.25
2022-10-09T07:59:33.363Z,65.57
2022-10-09T08:01:59.638Z,65.64
2022-10-09T08:04:26.212Z,66.70
2022-10-09T08:06:52.461Z,66.72
2022-10-09T08:09:18.837Z,65.99
2022-10-09T08:11:45.158Z,66.55
2022-10-09T08:14:16.584Z,68.38
2022-10-09T08:16:45.167Z,68.27
2022-10-09T08:19:11.438Z,68.21
2022-10-09T08:21:38.221Z,67.81
2022-10-09T08:24:04.664Z,67.56
2022-10-09T08:26:36.623Z,66.19
2022-10-09T08:29:04.083Z,66.86
2022-10-09T08:31:31.892Z,66.58
2022-10-09T08:33:59.440Z,66.89
2022-10-09T08:36:25.849Z,67.21
2022-10-09T08:38:52.510Z,65.73
2022-10-09T08:41:37.730Z,64.70
2022-10-09T08:44:22.024Z,64.95
2022-10-09T08:46:59.335Z,65.65
2022-10-09T08:49:28.587Z,65.90
2022-10-09T08:51:56.902Z,65.75
2022-10-09T08:54:26.221Z,64.85
2022-10-09T08:56:52.852Z,66.97
2022-10-09T08:59:19.366Z,65.68
2022-10-09T09:01:49.630Z,64.80
2022-10-09T09:04:15.958Z,64.67
2022-10-09T09:06:45.192Z,63.51
2022-10-09T09:09:18.435Z,65.10
2022-10-09T09:11:56.307Z,64.15
2022-10-09T09:14:46.953Z,64.25
2022-10-09T09:17:15.895Z,63.89
2022-10-09T09:19:45.218Z,62.11
2022-10-09T09:22:13.378Z,62.09
2022-10-09T09:24:53.050Z,62.69
2022-10-09T09:27:20.594Z,62.16
2022-10-09T09:29:50.226Z,62.29
2022-10-09T09:32:20.310Z,61.66
2022-10-09T09:34:47.117Z,60.78
2022-10-09T09:37:13.516Z,60.45
2022-10-09T09:40:34.880Z,61.04
2022-10-09T09:42:27.276Z,59.25
2022-10-09T09:45:02.955Z,58.46
2022-10-09T09:47:47.768Z,58.26
2022-10-09T09:50:28.810Z,58.39
2022-10-09T09:53:28.951Z,57.47
2022-10-09T09:55:56.264Z,58.00
2022-10-09T09:58:22.920Z,58.31
2022-10-09T10:01:00.921Z,58.63
2022-10-09T10:03:27.686Z,57.71
2022-10-09T10:05:54.256Z,57.64
2022-10-09T10:08:23.007Z,57.33
2022-10-09T10:10:50.654Z,55.70
2022-10-09T10:13:46.046Z,56.03
2022-10-09T10:16:20.354Z,55.65
2022-10-09T10:18:46.641Z,53.85
2022-10-09T10:21:14.319Z,53.92
2022-10-09T10:23:49.843Z,46.59
2022-10-09T10:26:22.093Z,42.07
2022-10-09T10:28:51.726Z,37.74
2022-10-09T10:31:23.289Z,36.02
2022-10-09T10:33:52.001Z,34.70
2022-10-09T10:36:18.573Z,35.65
2022-10-09T10:38:49.956Z,36.19
2022-10-09T10:41:17.643Z,36.24
2022-10-09T10:43:45.876Z,37.55
2022-10-09T10:46:15.707Z,38.47
2022-10-09T10:48:43.440Z,40.03
2022-10-09T10:51:29.722Z,40.80
2022-10-09T10:53:58.776Z,42.84
2022-10-09T10:56:28.562Z,42.85
2022-10-09T10:59:05.592Z,42.96
2022-10-09T11:01:39.089Z,42.41
2022-10-09T11:04:41.154Z,43.17
2022-10-09T11:07:26.364Z,42.63
2022-10-09T11:09:56.100Z,44.41
2022-10-09T11:12:47.744Z,42.99
2022-10-09T11:15:37.439Z,43.92
2022-10-09T11:18:19.517Z,43.85
2022-10-09T11:21:15.936Z,44.21
2022-10-09T11:24:14.831Z,45.61
2022-10-09T11:26:41.063Z,44.66
2022-10-09T11:29:18.298Z,45.33
2022-10-09T11:31:55.372Z,44.53
2022-10-09T11:34:26.775Z,44.83
2022-10-09T11:36:53.495Z,44.13
2022-10-09T11:39:22.259Z,41.06
2022-10-09T11:41:50.077Z,42.51
2022-10-09T11:44:35.109Z,42.04
2022-10-09T11:47:10.667Z,41.90
2022-10-09T11:49:55.720Z,42.00
2022-10-09T11:52:35.856Z,42.58
2022-10-09T11:55:16.193Z,42.71
2022-10-09T11:57:42.468Z,42.33
2022-10-09T12:00:09.390Z,42.29
2022-10-09T12:02:36.750Z,42.78
2022-10-09T12:05:15.641Z,42.35
2022-10-09T12:07:42.017Z,42.09
2022-10-09T12:10:08.472Z,41.63
2022-10-09T12:12:37.717Z,41.39
2022-10-09T12:15:23.069Z,41.37
2022-10-09T12:17:49.995Z,40.54
2022-10-09T12:20:18.305Z,40.00
2022-10-09T12:23:01.437Z,39.86
2022-10-09T12:25:40.524Z,38.89
2022-10-09T12:28:14.143Z,38.21
2022-10-09T12:30:47.447Z,37.97
2022-10-09T12:33:32.753Z,38.08
2022-10-09T12:36:05.098Z,37.36
2022-10-09T12:38:31.857Z,36.32
2022-10-09T12:41:01.086Z,36.14
2022-10-09T12:43:27.831Z,36.22
2022-10-09T12:45:54.525Z,35.23
2022-10-09T12:48:22.086Z,36.12
2022-10-09T12:50:48.562Z,35.56
2022-10-09T12:53:16.613Z,35.18
2022-10-09T12:55:48.389Z,35.05
2022-10-09T12:58:29.334Z,35.25
2022-10-09T13:00:58.126Z,35.50
2022-10-09T13:03:51.826Z,34.82
2022-10-09T13:06:19.724Z,34.01
2022-10-09T13:08:51.363Z,33.97
2022-10-09T13:11:20.719Z,32.99
2022-10-09T13:13:51.168Z,32.42
2022-10-09T13:16:17.472Z,31.95
2022-10-09T13:18:43.994Z,33.11
2022-10-09T13:21:17.498Z,33.33
2022-10-09T13:23:43.894Z,33.45
2022-10-09T13:26:15.815Z,33.91
2022-10-09T13:28:42.102Z,34.74
2022-10-09T13:31:08.651Z,35.13
2022-10-09T13:33:35.280Z,34.60
2022-10-09T13:36:01.589Z,34.56
2022-10-09T13:38:30.285Z,34.96
2022-10-09T13:41:00.348Z,35.37
2022-10-09T13:43:27.377Z,34.65
2022-10-09T13:45:53.719Z,34.82
2022-10-09T13:48:20.134Z,34.80
2022-10-09T13:50:46.392Z,34.72
2022-10-09T13:53:12.711Z,34.64
2022-10-09T13:55:39.050Z,34.76
2022-10-09T13:58:05.367Z,34.44
2022-10-09T14:00:31.677Z,33.27
2022-10-09T14:02:58.154Z,34.17
2022-10-09T14:05:26.493Z,33.06
2022-10-09T14:07:53.065Z,33.80
2022-10-09T14:10:23.633Z,33.54
2022-10-09T14:12:51.431Z,32.44
2022-10-09T14:15:18.446Z,32.82
2022-10-09T14:20:19.935Z,32.95
2022-10-09T14:22:46.507Z,33.67
2022-10-09T14:25:13.059Z,32.06
2022-10-09T14:27:41.601Z,32.28
2022-10-09T14:30:11.077Z,32.86
2022-10-09T14:32:37.398Z,32.49
2022-10-09T14:35:03.945Z,32.55
2022-10-09T14:37:41.141Z,33.74
2022-10-09T14:40:08.979Z,33.40
2022-10-09T14:42:38.672Z,33.58
2022-10-09T14:45:06.376Z,33.59
2022-10-09T14:47:32.742Z,33.37
2022-10-09T14:49:59.060Z,33.40
2022-10-09T14:52:25.401Z,32.92
2022-10-09T14:54:51.756Z,33.92
2022-10-09T14:57:18.122Z,33.52
2022-10-09T14:59:44.514Z,33.31
2022-10-09T15:02:20.213Z,33.86
2022-10-09T15:04:46.807Z,33.61
2022-10-09T15:07:13.180Z,34.27
2022-10-09T15:09:39.550Z,34.87
2022-10-09T15:12:05.978Z,35.77
2022-10-09T15:14:32.384Z,35.44
2022-10-09T15:16:58.723Z,35.11
2022-10-09T15:19:25.138Z,35.24
2022-10-09T15:21:51.455Z,35.48
2022-10-09T15:24:17.941Z,35.08
2022-10-09T15:26:44.252Z,35.88
2022-10-09T15:29:12.009Z,35.72
2022-10-09T15:31:40.509Z,36.22
2022-10-09T15:34:08.256Z,36.26
2022-10-09T15:36:37.344Z,36.33
2022-10-09T15:39:07.123Z,36.55
2022-10-09T15:41:36.444Z,36.54
2022-10-09T15:44:07.004Z,37.05
2022-10-09T15:46:34.196Z,36.88
2022-10-09T15:49:00.590Z,35.99
2022-10-09T15:51:28.303Z,36.51
2022-10-09T15:53:56.051Z,36.51
2022-10-09T15:56:24.265Z,36.18
2022-10-09T15:58:51.745Z,36.55
2022-10-09T16:01:19.648Z,36.95
2022-10-09T16:03:46.762Z,36.86
2022-10-09T16:06:18.060Z,36.81
2022-10-09T16:08:44.677Z,36.47
2022-10-09T16:11:13.139Z,36.72
2022-10-09T16:16:09.507Z,37.38
2022-10-09T16:18:36.458Z,37.49
2022-10-09T16:21:19.030Z,37.95
2022-10-09T16:23:45.856Z,38.67
2022-10-09T16:26:14.947Z,38.43
2022-10-09T16:28:41.482Z,38.49
2022-10-09T16:31:08.008Z,38.47
2022-10-09T16:33:34.715Z,38.51
2022-10-09T16:36:09.155Z,38.90
2022-10-09T16:38:35.396Z,38.97
2022-10-09T16:41:02.685Z,38.93
2022-10-09T16:43:32.431Z,39.83
2022-10-09T16:46:09.181Z,40.27
2022-10-09T16:48:35.556Z,40.13
2022-10-09T16:51:01.881Z,40.74
2022-10-09T16:53:28.490Z,40.79
2022-10-09T16:55:54.850Z,40.82
2022-10-09T16:58:21.267Z,40.98
2022-10-09T17:00:47.628Z,41.51
2022-10-09T17:03:13.982Z,41.75
2022-10-09T17:05:40.493Z,41.88
2022-10-09T17:08:06.915Z,42.34
2022-10-09T17:10:33.288Z,41.98
2022-10-09T17:12:59.639Z,41.84
2022-10-09T17:15:25.940Z,41.41
2022-10-09T17:17:52.854Z,40.28
2022-10-09T17:20:19.485Z,40.70
2022-10-09T17:22:45.860Z,40.44
2022-10-09T17:25:13.619Z,41.21
2022-10-09T17:27:40.010Z,41.04
2022-10-09T17:30:07.135Z,39.72
2022-10-09T17:32:33.561Z,40.70
2022-10-09T17:34:59.922Z,40.48
2022-10-09T17:37:26.299Z,41.18
2022-10-09T17:39:52.724Z,40.90
2022-10-09T17:42:19.117Z,41.19
2022-10-09T17:44:45.474Z,41.30
2022-10-09T17:47:11.811Z,41.12
2022-10-09T17:49:38.293Z,40.67
2022-10-09T17:52:04.635Z,41.40
2022-10-09T17:54:31.098Z,41.25
2022-10-09T17:57:00.136Z,41.42
2022-10-09T17:59:27.095Z,41.59
2022-10-09T18:01:53.730Z,41.54
2022-10-09T18:04:20.157Z,42.21
2022-10-09T18:06:46.472Z,41.79
2022-10-09T18:09:12.822Z,42.42
2022-10-09T18:11:39.226Z,42.54
2022-10-09T18:14:05.679Z,42.32
2022-10-09T18:16:36.790Z,41.85
2022-10-09T18:19:14.513Z,42.19
2022-10-09T18:21:44.199Z,41.79
2022-10-09T18:24:11.633Z,42.17
2022-10-09T18:26:38.438Z,41.47
2022-10-09T18:29:05.097Z,42.40
2022-10-09T18:31:32.329Z,42.77
2022-10-09T18:34:00.161Z,42.30
2022-10-09T18:36:31.603Z,42.77
2022-10-09T18:39:07.179Z,42.95
2022-10-09T18:41:33.894Z,43.37
2022-10-09T18:44:00.923Z,43.13
2022-10-09T18:46:33.351Z,43.20
2022-10-09T18:49:00.055Z,43.14
2022-10-09T18:51:28.363Z,43.36
2022-10-09T18:53:59.854Z,43.66
2022-10-09T18:56:29.254Z,44.49
2022-10-09T18:58:55.655Z,43.86
2022-10-09T19:01:22.620Z,45.09
2022-10-09T19:03:50.246Z,44.05
2022-10-09T19:06:21.640Z,45.02
2022-10-09T19:08:48.089Z,45.07
2022-10-09T19:11:14.792Z,45.33
2022-10-09T19:13:42.790Z,45.35
2022-10-09T19:16:09.780Z,44.86
2022-10-09T19:18:36.925Z,45.13
2022-10-09T19:21:03.660Z,45.24
2022-10-09T19:23:30.251Z,45.37
2022-10-09T19:25:58.515Z,45.51
2022-10-09T19:28:26.958Z,45.73
2022-10-09T19:30:53.358Z,45.51
2022-10-09T19:33:19.696Z,46.10
2022-10-09T19:35:55.058Z,45.59
2022-10-09T19:38:22.969Z,45.65
2022-10-09T19:40:49.965Z,45.98
2022-10-09T19:43:17.625Z,46.46
2022-10-09T19:45:44.803Z,46.82
2022-10-09T19:48:11.272Z,46.70
2022-10-09T19:50:42.475Z,46.66
2022-10-09T19:53:09.328Z,46.53
2022-10-09T19:55:36.321Z,47.10
2022-10-09T19:58:03.589Z,46.62
2022-10-09T20:00:30.913Z,47.54
2022-10-09T20:02:57.307Z,46.79
2022-10-09T20:05:23.781Z,46.86
2022-10-09T20:07:50.293Z,46.81
2022-10-09T20:10:16.874Z,47.01
2022-10-09T20:12:43.481Z,47.80
2022-10-09T20:15:10.120Z,47.72
2022-10-09T20:17:36.565Z,47.16
2022-10-09T20:20:04.971Z,47.02
2022-10-09T20:22:31.591Z,47.15
2022-10-09T20:24:58.004Z,47.01
2022-10-09T20:27:24.527Z,46.94
2022-10-09T20:29:52.704Z,48.27
2022-10-09T20:32:19.062Z,47.29
2022-10-09T20:34:45.376Z,48.97
2022-10-09T20:37:11.920Z,48.86
2022-10-09T20:39:38.397Z,49.53
2022-10-09T20:42:04.813Z,49.96
2022-10-09T20:44:31.142Z,50.17
2022-10-09T20:46:57.526Z,51.02
2022-10-09T20:49:23.976Z,51.02
2022-10-09T20:51:51.121Z,51.19
2022-10-09T20:54:19.885Z,51.14
2022-10-09T20:56:46.661Z,51.41
2022-10-09T20:59:13.626Z,50.64
2022-10-09T21:01:40.170Z,50.54
2022-10-09T21:04:06.564Z,50.96
2022-10-09T21:06:34.064Z,50.60
2022-10-09T21:09:00.388Z,50.07
2022-10-09T21:11:26.808Z,49.56
2022-10-09T21:13:53.844Z,49.80
2022-10-09T21:16:22.786Z,49.72
2022-10-09T21:18:59.860Z,49.49
2022-10-09T21:21:28.206Z,49.86
2022-10-09T21:23:57.780Z,49.21
2022-10-09T21:26:25.540Z,48.86
2022-10-09T21:28:56.746Z,49.40
2022-10-09T21:31:28.220Z,49.21
2022-10-09T21:33:55.267Z,49.26
2022-10-09T21:36:34.289Z,49.48
2022-10-09T21:39:00.872Z,49.67
2022-10-09T21:41:27.510Z,50.03
2022-10-09T21:43:53.873Z,50.74
2022-10-09T21:46:20.303Z,50.56
2022-10-09T21:48:46.725Z,50.58
2022-10-09T21:51:13.190Z,51.48
2022-10-09T21:53:39.770Z,52.02
2022-10-09T21:56:07.168Z,52.08
2022-10-09T21:58:33.513Z,52.41
2022-10-09T22:01:01.594Z,52.01
2022-10-09T22:03:30.657Z,52.66
2022-10-09T22:05:57.155Z,52.73
2022-10-09T22:08:24.770Z,52.55
2022-10-09T22:10:51.774Z,52.85
2022-10-09T22:13:20.208Z,52.36
2022-10-09T22:15:50.929Z,52.35
2022-10-09T22:18:17.956Z,52.61
2022-10-09T22:20:49.567Z,53.16
2022-10-09T22:23:17.446Z,53.01
2022-10-09T22:25:43.852Z,53.63
2022-10-09T22:28:10.411Z,53.52
2022-10-09T22:30:36.854Z,53.76
2022-10-09T22:33:03.236Z,54.10
2022-10-09T22:35:29.817Z,54.21
2022-10-09T22:37:57.246Z,53.94
2022-10-09T22:40:23.696Z,54.15
2022-10-09T22:42:50.338Z,53.76
2022-10-09T22:45:16.991Z,53.92
2022-10-09T22:47:43.318Z,54.17
2022-10-09T22:50:09.874Z,54.12
2022-10-09T22:52:36.245Z,54.49
2022-10-09T22:55:03.379Z,55.34
2022-10-09T22:57:29.685Z,54.64
2022-10-09T22:59:56.061Z,54.35
2022-10-09T23:02:22.382Z,54.23
2022-10-09T23:04:48.726Z,53.86
2022-10-09T23:07:15.210Z,54.25
2022-10-09T23:09:41.567Z,54.43
2022-10-09T23:12:08.200Z,54.43
2022-10-09T23:14:34.712Z,54.29
2022-10-09T23:17:01.023Z,54.13
2022-10-09T23:19:27.451Z,54.20
2022-10-09T23:21:53.785Z,55.10
2022-10-09T23:24:20.193Z,54.91
2022-10-09T23:26:50.546Z,55.17
2022-10-09T23:29:18.506Z,55.58
2022-10-09T23:31:45.557Z,55.46
2022-10-09T23:34:12.932Z,55.99
2022-10-09T23:36:39.520Z,56.11
2022-10-09T23:39:06.827Z,55.10
2022-10-09T23:41:33.636Z,55.58
2022-10-09T23:43:59.983Z,55.66
2022-10-09T23:46:29.093Z,55.67
2022-10-09T23:48:56.417Z,55.24
2022-10-09T23:51:24.668Z,55.87
2022-10-09T23:53:51.572Z,55.57
2022-10-09T23:56:24.413Z,56.40
2022-10-09T23:58:51.597Z,56.33
